Terminal Aerodrome Forecast
Issued by NWS

Home | Current Version | Previous Version | Text Only | Print | Product List | Glossary On
Versions: 1 2 3 4 5 6 7 8 9 10 11 12 13 14 15 16 17 18 19 20 21 22 23 24 25 26 27 28 29 30 31 32 33 34 35 36 37 38 39 40 41 42 43
000
FTAK31 PANC 300751 AAA
TAFAVD
TAF AMD
PAVD 300751Z 3008/3106 VRB03KT P6SM VCSH BKN035 OVC050
     FM301200 VRB03KT 2SM BR SCT001 BKN008 OVC018
     FM302000 24008KT P6SM SCT025 BKN080
     FM310400 08005KT P6SM SCT025 BKN080
      AMD LTD TO CLD VIS AND WIND=

USA.gov is the U.S. government's official web portal to all federal, state and local government web resources and services.